sensor_id;sensor_type;location;lat;lon;timestamp;temperature;humidity
34099;DHT22;20374;49.474;10.944;2022-11-25T00:01:44;1.50;99.90
34099;DHT22;20374;49.474;10.944;2022-11-25T00:04:10;1.50;99.90
34099;DHT22;20374;49.474;10.944;2022-11-25T00:06:36;1.40;99.90
34099;DHT22;20374;49.474;10.944;2022-11-25T00:09:06;1.40;99.90
34099;DHT22;20374;49.474;10.944;2022-11-25T00:11:36;1.50;99.90
34099;DHT22;20374;49.474;10.944;2022-11-25T00:14:06;1.50;99.90
34099;DHT22;20374;49.474;10.944;2022-11-25T00:16:33;1.40;99.90
34099;DHT22;20374;49.474;10.944;2022-11-25T00:18:59;1.40;99.90
34099;DHT22;20374;49.474;10.944;2022-11-25T00:21:28;1.30;99.90
34099;DHT22;20374;49.474;10.944;2022-11-25T00:23:59;1.30;99.90
34099;DHT22;20374;49.474;10.944;2022-11-25T00:26:26;1.30;99.90
34099;DHT22;20374;49.474;10.944;2022-11-25T00:28:53;1.30;99.90
34099;DHT22;20374;49.474;10.944;2022-11-25T00:31:32;1.30;99.90
34099;DHT22;20374;49.474;10.944;2022-11-25T00:33:59;1.30;99.90
34099;DHT22;20374;49.474;10.944;2022-11-25T00:36:27;1.20;99.90
34099;DHT22;20374;49.474;10.944;2022-11-25T00:39:01;1.40;99.90
34099;DHT22;20374;49.474;10.944;2022-11-25T00:41:28;1.30;99.90
34099;DHT22;20374;49.474;10.944;2022-11-25T00:44:15;1.30;99.90
34099;DHT22;20374;49.474;10.944;2022-11-25T00:47:10;1.20;99.90
34099;DHT22;20374;49.474;10.944;2022-11-25T00:49:37;1.30;99.90
34099;DHT22;20374;49.474;10.944;2022-11-25T00:52:04;1.20;99.90
34099;DHT22;20374;49.474;10.944;2022-11-25T00:54:30;1.20;99.90
34099;DHT22;20374;49.474;10.944;2022-11-25T00:56:57;1.30;99.90
34099;DHT22;20374;49.474;10.944;2022-11-25T00:59:23;1.20;99.90
34099;DHT22;20374;49.474;10.944;2022-11-25T01:01:49;1.20;99.90
34099;DHT22;20374;49.474;10.944;2022-11-25T01:04:15;1.30;99.90
34099;DHT22;20374;49.474;10.944;2022-11-25T01:06:41;1.20;99.90
34099;DHT22;20374;49.474;10.944;2022-11-25T01:09:09;1.20;99.90
34099;DHT22;20374;49.474;10.944;2022-11-25T01:11:37;1.20;99.90
34099;DHT22;20374;49.474;10.944;2022-11-25T01:14:03;1.10;99.90
34099;DHT22;20374;49.474;10.944;2022-11-25T01:16:30;1.10;99.90
34099;DHT22;20374;49.474;10.944;2022-11-25T01:18:59;1.20;99.90
34099;DHT22;20374;49.474;10.944;2022-11-25T01:21:28;1.20;99.90
34099;DHT22;20374;49.474;10.944;2022-11-25T01:23:55;1.20;99.90
34099;DHT22;20374;49.474;10.944;2022-11-25T01:26:22;1.10;99.90
34099;DHT22;20374;49.474;10.944;2022-11-25T01:28:53;1.10;99.90
34099;DHT22;20374;49.474;10.944;2022-11-25T01:31:21;1.10;99.90
34099;DHT22;20374;49.474;10.944;2022-11-25T01:33:52;1.30;99.90
34099;DHT22;20374;49.474;10.944;2022-11-25T01:36:18;1.20;99.90
34099;DHT22;20374;49.474;10.944;2022-11-25T01:38:52;1.20;99.90
34099;DHT22;20374;49.474;10.944;2022-11-25T01:41:19;1.20;99.90
34099;DHT22;20374;49.474;10.944;2022-11-25T01:44:11;1.30;99.90
34099;DHT22;20374;49.474;10.944;2022-11-25T01:49:14;1.30;99.90
34099;DHT22;20374;49.474;10.944;2022-11-25T01:51:50;1.30;99.90
34099;DHT22;20374;49.474;10.944;2022-11-25T01:54:19;1.30;99.90
34099;DHT22;20374;49.474;10.944;2022-11-25T01:56:54;1.30;99.90
34099;DHT22;20374;49.474;10.944;2022-11-25T01:59:22;1.30;99.90
34099;DHT22;20374;49.474;10.944;2022-11-25T02:01:49;1.20;99.90
34099;DHT22;20374;49.474;10.944;2022-11-25T02:04:16;1.20;99.90
34099;DHT22;20374;49.474;10.944;2022-11-25T02:06:56;1.20;99.90
34099;DHT22;20374;49.474;10.944;2022-11-25T02:09:24;1.20;99.90
34099;DHT22;20374;49.474;10.944;2022-11-25T02:11:51;1.10;99.90
34099;DHT22;20374;49.474;10.944;2022-11-25T02:14:19;1.00;99.90
34099;DHT22;20374;49.474;10.944;2022-11-25T02:16:47;1.10;99.90
34099;DHT22;20374;49.474;10.944;2022-11-25T02:19:45;1.10;99.90
34099;DHT22;20374;49.474;10.944;2022-11-25T02:22:21;1.10;99.90
34099;DHT22;20374;49.474;10.944;2022-11-25T02:24:51;1.00;99.90
34099;DHT22;20374;49.474;10.944;2022-11-25T02:27:20;1.00;99.90
34099;DHT22;20374;49.474;10.944;2022-11-25T02:29:47;1.00;99.90
34099;DHT22;20374;49.474;10.944;2022-11-25T02:32:20;1.00;99.90
34099;DHT22;20374;49.474;10.944;2022-11-25T02:34:49;0.90;99.90
34099;DHT22;20374;49.474;10.944;2022-11-25T02:37:17;0.90;99.90
34099;DHT22;20374;49.474;10.944;2022-11-25T02:39:46;0.80;99.90
34099;DHT22;20374;49.474;10.944;2022-11-25T02:42:14;0.80;99.90
34099;DHT22;20374;49.474;10.944;2022-11-25T02:44:44;0.80;99.90
34099;DHT22;20374;49.474;10.944;2022-11-25T02:47:10;0.80;99.90
34099;DHT22;20374;49.474;10.944;2022-11-25T02:49:37;0.70;99.90
34099;DHT22;20374;49.474;10.944;2022-11-25T02:52:04;0.70;99.90
34099;DHT22;20374;49.474;10.944;2022-11-25T02:54:30;0.70;99.90
34099;DHT22;20374;49.474;10.944;2022-11-25T02:56:56;0.70;99.90
34099;DHT22;20374;49.474;10.944;2022-11-25T02:59:22;0.70;99.90
34099;DHT22;20374;49.474;10.944;2022-11-25T03:01:49;0.50;99.90
34099;DHT22;20374;49.474;10.944;2022-11-25T03:04:15;0.50;99.90
34099;DHT22;20374;49.474;10.944;2022-11-25T03:06:41;0.50;99.90
34099;DHT22;20374;49.474;10.944;2022-11-25T03:09:07;0.40;99.90
34099;DHT22;20374;49.474;10.944;2022-11-25T03:11:37;0.40;99.90
34099;DHT22;20374;49.474;10.944;2022-11-25T03:14:21;0.30;99.90
34099;DHT22;20374;49.474;10.944;2022-11-25T03:16:47;0.40;99.90
34099;DHT22;20374;49.474;10.944;2022-11-25T03:19:13;0.30;99.90
34099;DHT22;20374;49.474;10.944;2022-11-25T03:21:39;0.40;99.90
34099;DHT22;20374;49.474;10.944;2022-11-25T03:24:06;0.30;99.90
34099;DHT22;20374;49.474;10.944;2022-11-25T03:26:32;0.30;99.90
34099;DHT22;20374;49.474;10.944;2022-11-25T03:28:58;0.20;99.90
34099;DHT22;20374;49.474;10.944;2022-11-25T03:31:24;0.30;99.90
34099;DHT22;20374;49.474;10.944;2022-11-25T03:33:50;0.30;99.90
34099;DHT22;20374;49.474;10.944;2022-11-25T03:36:15;0.20;99.90
34099;DHT22;20374;49.474;10.944;2022-11-25T03:38:41;0.20;99.90
34099;DHT22;20374;49.474;10.944;2022-11-25T03:41:08;0.20;99.90
34099;DHT22;20374;49.474;10.944;2022-11-25T03:43:34;0.20;99.90
34099;DHT22;20374;49.474;10.944;2022-11-25T03:46:00;0.30;99.90
34099;DHT22;20374;49.474;10.944;2022-11-25T03:48:26;0.30;99.90
34099;DHT22;20374;49.474;10.944;2022-11-25T03:50:52;0.30;99.90
34099;DHT22;20374;49.474;10.944;2022-11-25T03:53:18;0.20;99.90
34099;DHT22;20374;49.474;10.944;2022-11-25T03:55:47;0.20;99.90
34099;DHT22;20374;49.474;10.944;2022-11-25T03:58:15;0.20;99.90
34099;DHT22;20374;49.474;10.944;2022-11-25T04:00:41;0.20;99.90
34099;DHT22;20374;49.474;10.944;2022-11-25T04:03:07;0.20;99.90
34099;DHT22;20374;49.474;10.944;2022-11-25T04:05:33;0.30;99.90
34099;DHT22;20374;49.474;10.944;2022-11-25T04:08:04;0.30;99.90
34099;DHT22;20374;49.474;10.944;2022-11-25T04:10:31;0.40;99.90
34099;DHT22;20374;49.474;10.944;2022-11-25T04:12:57;0.40;99.90
34099;DHT22;20374;49.474;10.944;2022-11-25T04:15:31;0.40;99.90
34099;DHT22;20374;49.474;10.944;2022-11-25T04:17:58;0.50;99.90
34099;DHT22;20374;49.474;10.944;2022-11-25T04:20:24;0.50;99.90
34099;DHT22;20374;49.474;10.944;2022-11-25T04:22:56;0.50;99.90
34099;DHT22;20374;49.474;10.944;2022-11-25T04:25:22;0.60;99.90
34099;DHT22;20374;49.474;10.944;2022-11-25T04:27:50;0.60;99.90
34099;DHT22;20374;49.474;10.944;2022-11-25T04:30:21;0.60;99.90
34099;DHT22;20374;49.474;10.944;2022-11-25T04:32:47;0.60;99.90
34099;DHT22;20374;49.474;10.944;2022-11-25T04:35:13;0.60;99.90
34099;DHT22;20374;49.474;10.944;2022-11-25T04:37:43;0.70;99.90
34099;DHT22;20374;49.474;10.944;2022-11-25T04:40:10;0.60;99.90
34099;DHT22;20374;49.474;10.944;2022-11-25T04:42:36;0.70;99.90
34099;DHT22;20374;49.474;10.944;2022-11-25T04:45:09;0.70;99.90
34099;DHT22;20374;49.474;10.944;2022-11-25T04:47:38;0.70;99.90
34099;DHT22;20374;49.474;10.944;2022-11-25T04:50:08;0.80;99.90
34099;DHT22;20374;49.474;10.944;2022-11-25T04:52:43;0.80;99.90
34099;DHT22;20374;49.474;10.944;2022-11-25T04:55:09;0.80;99.90
34099;DHT22;20374;49.474;10.944;2022-11-25T04:57:36;0.80;99.90
34099;DHT22;20374;49.474;10.944;2022-11-25T05:00:04;0.80;99.90
34099;DHT22;20374;49.474;10.944;2022-11-25T05:02:31;0.80;99.90
34099;DHT22;20374;49.474;10.944;2022-11-25T05:05:07;0.80;99.90
34099;DHT22;20374;49.474;10.944;2022-11-25T05:07:34;0.80;99.90
34099;DHT22;20374;49.474;10.944;2022-11-25T05:10:04;0.80;99.90
34099;DHT22;20374;49.474;10.944;2022-11-25T05:12:41;0.80;99.90
34099;DHT22;20374;49.474;10.944;2022-11-25T05:15:11;0.70;99.90
34099;DHT22;20374;49.474;10.944;2022-11-25T05:17:38;0.70;99.90
34099;DHT22;20374;49.474;10.944;2022-11-25T05:20:05;0.70;99.90
34099;DHT22;20374;49.474;10.944;2022-11-25T05:22:34;0.70;99.90
34099;DHT22;20374;49.474;10.944;2022-11-25T05:25:01;0.70;99.90
34099;DHT22;20374;49.474;10.944;2022-11-25T05:27:29;0.70;99.90
34099;DHT22;20374;49.474;10.944;2022-11-25T05:29:59;0.70;99.90
34099;DHT22;20374;49.474;10.944;2022-11-25T05:32:25;0.80;99.90
34099;DHT22;20374;49.474;10.944;2022-11-25T05:34:55;0.90;99.90
34099;DHT22;20374;49.474;10.944;2022-11-25T05:37:21;0.80;99.90
34099;DHT22;20374;49.474;10.944;2022-11-25T05:39:53;0.80;99.90
34099;DHT22;20374;49.474;10.944;2022-11-25T05:42:32;0.80;99.90
34099;DHT22;20374;49.474;10.944;2022-11-25T05:45:01;0.80;99.90
34099;DHT22;20374;49.474;10.944;2022-11-25T05:47:28;0.80;99.90
34099;DHT22;20374;49.474;10.944;2022-11-25T05:49:54;0.80;99.90
34099;DHT22;20374;49.474;10.944;2022-11-25T05:52:20;0.80;99.90
34099;DHT22;20374;49.474;10.944;2022-11-25T05:54:56;0.70;99.90
34099;DHT22;20374;49.474;10.944;2022-11-25T05:57:22;0.70;99.90
34099;DHT22;20374;49.474;10.944;2022-11-25T05:59:52;0.60;99.90
34099;DHT22;20374;49.474;10.944;2022-11-25T06:02:40;0.60;99.90
34099;DHT22;20374;49.474;10.944;2022-11-25T06:05:07;0.50;99.90
34099;DHT22;20374;49.474;10.944;2022-11-25T06:07:33;0.50;99.90
34099;DHT22;20374;49.474;10.944;2022-11-25T06:09:59;0.50;99.90
34099;DHT22;20374;49.474;10.944;2022-11-25T06:12:25;0.50;99.90
34099;DHT22;20374;49.474;10.944;2022-11-25T06:14:52;0.60;99.90
34099;DHT22;20374;49.474;10.944;2022-11-25T06:17:18;0.70;99.90
34099;DHT22;20374;49.474;10.944;2022-11-25T06:19:52;0.70;99.90
34099;DHT22;20374;49.474;10.944;2022-11-25T06:22:18;0.70;99.90
34099;DHT22;20374;49.474;10.944;2022-11-25T06:24:44;0.80;99.90
34099;DHT22;20374;49.474;10.944;2022-11-25T06:27:10;0.80;99.90
34099;DHT22;20374;49.474;10.944;2022-11-25T06:29:37;0.80;99.90
34099;DHT22;20374;49.474;10.944;2022-11-25T06:32:03;0.80;99.90
34099;DHT22;20374;49.474;10.944;2022-11-25T06:34:41;0.80;99.90
34099;DHT22;20374;49.474;10.944;2022-11-25T06:37:17;0.80;99.90
34099;DHT22;20374;49.474;10.944;2022-11-25T06:39:43;0.80;99.90
34099;DHT22;20374;49.474;10.944;2022-11-25T06:42:10;0.80;99.90
34099;DHT22;20374;49.474;10.944;2022-11-25T06:44:36;0.70;99.90
34099;DHT22;20374;49.474;10.944;2022-11-25T06:47:02;0.80;99.90
34099;DHT22;20374;49.474;10.944;2022-11-25T06:49:28;0.80;99.90
34099;DHT22;20374;49.474;10.944;2022-11-25T06:51:54;0.80;99.90
34099;DHT22;20374;49.474;10.944;2022-11-25T06:54:23;0.80;99.90
34099;DHT22;20374;49.474;10.944;2022-11-25T06:56:49;0.80;99.90
34099;DHT22;20374;49.474;10.944;2022-11-25T06:59:19;0.80;99.90
34099;DHT22;20374;49.474;10.944;2022-11-25T07:01:46;0.80;99.90
34099;DHT22;20374;49.474;10.944;2022-11-25T07:04:12;0.70;99.90
34099;DHT22;20374;49.474;10.944;2022-11-25T07:06:38;0.80;99.90
34099;DHT22;20374;49.474;10.944;2022-11-25T07:09:04;0.80;99.90
34099;DHT22;20374;49.474;10.944;2022-11-25T07:11:35;0.90;99.90
34099;DHT22;20374;49.474;10.944;2022-11-25T07:14:04;0.90;99.90
34099;DHT22;20374;49.474;10.944;2022-11-25T07:16:31;1.00;99.90
34099;DHT22;20374;49.474;10.944;2022-11-25T07:19:01;1.10;99.90
34099;DHT22;20374;49.474;10.944;2022-11-25T07:21:28;1.20;99.90
34099;DHT22;20374;49.474;10.944;2022-11-25T07:23:56;1.20;99.90
34099;DHT22;20374;49.474;10.944;2022-11-25T07:26:25;1.20;99.90
34099;DHT22;20374;49.474;10.944;2022-11-25T07:28:52;1.20;99.90
34099;DHT22;20374;49.474;10.944;2022-11-25T07:31:30;1.40;99.90
34099;DHT22;20374;49.474;10.944;2022-11-25T07:34:09;1.50;99.90
34099;DHT22;20374;49.474;10.944;2022-11-25T07:36:36;1.60;99.90
34099;DHT22;20374;49.474;10.944;2022-11-25T07:39:05;1.70;99.90
34099;DHT22;20374;49.474;10.944;2022-11-25T07:41:32;1.80;99.90
34099;DHT22;20374;49.474;10.944;2022-11-25T07:44:00;1.90;99.90
34099;DHT22;20374;49.474;10.944;2022-11-25T07:46:31;2.00;99.90
34099;DHT22;20374;49.474;10.944;2022-11-25T07:49:00;2.10;99.90
34099;DHT22;20374;49.474;10.944;2022-11-25T07:51:29;2.20;99.90
34099;DHT22;20374;49.474;10.944;2022-11-25T07:53:57;2.40;99.90
34099;DHT22;20374;49.474;10.944;2022-11-25T07:56:23;2.50;99.90
34099;DHT22;20374;49.474;10.944;2022-11-25T07:58:49;2.60;99.90
34099;DHT22;20374;49.474;10.944;2022-11-25T08:01:16;2.60;99.90
34099;DHT22;20374;49.474;10.944;2022-11-25T08:03:44;2.70;99.90
34099;DHT22;20374;49.474;10.944;2022-11-25T08:06:13;2.90;99.90
34099;DHT22;20374;49.474;10.944;2022-11-25T08:08:40;2.90;99.90
34099;DHT22;20374;49.474;10.944;2022-11-25T08:11:16;2.80;99.90
34099;DHT22;20374;49.474;10.944;2022-11-25T08:13:42;2.60;99.90
34099;DHT22;20374;49.474;10.944;2022-11-25T08:16:11;2.50;99.90
34099;DHT22;20374;49.474;10.944;2022-11-25T08:18:38;2.40;99.90
34099;DHT22;20374;49.474;10.944;2022-11-25T08:21:06;2.40;99.90
34099;DHT22;20374;49.474;10.944;2022-11-25T08:23:35;2.40;99.90
34099;DHT22;20374;49.474;10.944;2022-11-25T08:26:12;2.40;99.90
34099;DHT22;20374;49.474;10.944;2022-11-25T08:28:40;2.40;99.90
34099;DHT22;20374;49.474;10.944;2022-11-25T08:31:14;2.50;99.90
34099;DHT22;20374;49.474;10.944;2022-11-25T08:33:41;2.80;99.90
34099;DHT22;20374;49.474;10.944;2022-11-25T08:36:08;2.50;99.90
34099;DHT22;20374;49.474;10.944;2022-11-25T08:38:34;2.50;99.90
34099;DHT22;20374;49.474;10.944;2022-11-25T08:41:01;2.60;99.90
34099;DHT22;20374;49.474;10.944;2022-11-25T08:43:27;2.60;99.90
34099;DHT22;20374;49.474;10.944;2022-11-25T08:45:53;2.70;99.90
34099;DHT22;20374;49.474;10.944;2022-11-25T08:48:20;2.80;99.90
34099;DHT22;20374;49.474;10.944;2022-11-25T08:50:49;3.00;99.90
34099;DHT22;20374;49.474;10.944;2022-11-25T08:53:16;3.10;99.90
34099;DHT22;20374;49.474;10.944;2022-11-25T08:55:43;3.10;99.90
34099;DHT22;20374;49.474;10.944;2022-11-25T08:58:09;3.40;99.90
34099;DHT22;20374;49.474;10.944;2022-11-25T09:00:39;3.80;99.90
34099;DHT22;20374;49.474;10.944;2022-11-25T09:03:05;4.30;99.90
34099;DHT22;20374;49.474;10.944;2022-11-25T09:05:32;5.00;99.90
34099;DHT22;20374;49.474;10.944;2022-11-25T09:08:04;5.20;99.90
34099;DHT22;20374;49.474;10.944;2022-11-25T09:10:32;5.10;99.90
34099;DHT22;20374;49.474;10.944;2022-11-25T09:12:59;4.80;99.90
34099;DHT22;20374;49.474;10.944;2022-11-25T09:15:25;4.50;99.90
34099;DHT22;20374;49.474;10.944;2022-11-25T09:18:02;4.40;99.90
34099;DHT22;20374;49.474;10.944;2022-11-25T09:20:29;4.30;99.90
34099;DHT22;20374;49.474;10.944;2022-11-25T09:22:58;4.30;99.90
34099;DHT22;20374;49.474;10.944;2022-11-25T09:25:25;4.50;99.90
34099;DHT22;20374;49.474;10.944;2022-11-25T09:27:59;4.60;99.90
34099;DHT22;20374;49.474;10.944;2022-11-25T09:30:31;4.50;99.90
34099;DHT22;20374;49.474;10.944;2022-11-25T09:32:57;4.70;99.90
34099;DHT22;20374;49.474;10.944;2022-11-25T09:35:25;4.60;99.90
34099;DHT22;20374;49.474;10.944;2022-11-25T09:37:51;4.40;99.90
34099;DHT22;20374;49.474;10.944;2022-11-25T09:40:18;4.30;99.90
34099;DHT22;20374;49.474;10.944;2022-11-25T09:43:00;4.30;99.90
34099;DHT22;20374;49.474;10.944;2022-11-25T09:46:04;4.40;99.90
34099;DHT22;20374;49.474;10.944;2022-11-25T09:54:38;4.70;99.90
34099;DHT22;20374;49.474;10.944;2022-11-25T10:03:02;5.10;99.90
34099;DHT22;20374;49.474;10.944;2022-11-25T10:05:36;5.20;99.90
34099;DHT22;20374;49.474;10.944;2022-11-25T10:08:16;5.40;99.90
34099;DHT22;20374;49.474;10.944;2022-11-25T10:10:46;5.40;99.90
34099;DHT22;20374;49.474;10.944;2022-11-25T10:13:28;5.50;99.90
34099;DHT22;20374;49.474;10.944;2022-11-25T10:16:00;5.50;99.90
34099;DHT22;20374;49.474;10.944;2022-11-25T10:18:37;5.40;99.90
34099;DHT22;20374;49.474;10.944;2022-11-25T10:21:04;5.40;99.90
34099;DHT22;20374;49.474;10.944;2022-11-25T10:23:34;5.40;99.90
34099;DHT22;20374;49.474;10.944;2022-11-25T10:26:12;5.40;99.90
34099;DHT22;20374;49.474;10.944;2022-11-25T10:28:40;5.40;99.90
34099;DHT22;20374;49.474;10.944;2022-11-25T10:31:19;5.50;99.90
34099;DHT22;20374;49.474;10.944;2022-11-25T10:41:52;5.60;99.90
34099;DHT22;20374;49.474;10.944;2022-11-25T10:44:37;5.70;99.90
34099;DHT22;20374;49.474;10.944;2022-11-25T10:50:14;6.00;99.90
34099;DHT22;20374;49.474;10.944;2022-11-25T10:55:25;6.30;99.90
34099;DHT22;20374;49.474;10.944;2022-11-25T10:57:52;6.40;99.90
34099;DHT22;20374;49.474;10.944;2022-11-25T11:00:36;6.50;99.90
34099;DHT22;20374;49.474;10.944;2022-11-25T11:03:14;6.60;99.90
34099;DHT22;20374;49.474;10.944;2022-11-25T11:05:47;6.70;99.90
34099;DHT22;20374;49.474;10.944;2022-11-25T11:10:46;6.80;99.90
34099;DHT22;20374;49.474;10.944;2022-11-25T11:13:24;6.70;99.90
34099;DHT22;20374;49.474;10.944;2022-11-25T11:15:52;6.70;99.90
34099;DHT22;20374;49.474;10.944;2022-11-25T11:18:25;6.70;99.90
34099;DHT22;20374;49.474;10.944;2022-11-25T11:20:57;6.80;99.90
34099;DHT22;20374;49.474;10.944;2022-11-25T11:23:24;6.60;99.90
34099;DHT22;20374;49.474;10.944;2022-11-25T11:28:28;7.10;99.90
34099;DHT22;20374;49.474;10.944;2022-11-25T11:39:07;7.00;99.90
34099;DHT22;20374;49.474;10.944;2022-11-25T11:46:58;7.00;99.90
34099;DHT22;20374;49.474;10.944;2022-11-25T11:55:37;7.20;99.90
34099;DHT22;20374;49.474;10.944;2022-11-25T11:59:00;7.20;99.90
34099;DHT22;20374;49.474;10.944;2022-11-25T12:01:33;7.30;99.90
34099;DHT22;20374;49.474;10.944;2022-11-25T12:04:21;7.30;99.90
34099;DHT22;20374;49.474;10.944;2022-11-25T12:09:52;7.50;99.90
34099;DHT22;20374;49.474;10.944;2022-11-25T12:12:28;7.60;99.90
34099;DHT22;20374;49.474;10.944;2022-11-25T12:15:30;7.80;99.90
34099;DHT22;20374;49.474;10.944;2022-11-25T12:18:03;7.80;99.90
34099;DHT22;20374;49.474;10.944;2022-11-25T12:26:11;7.90;99.90
34099;DHT22;20374;49.474;10.944;2022-11-25T12:28:46;7.90;99.90
34099;DHT22;20374;49.474;10.944;2022-11-25T12:31:38;7.80;99.90
34099;DHT22;20374;49.474;10.944;2022-11-25T12:34:08;7.80;99.90
34099;DHT22;20374;49.474;10.944;2022-11-25T12:36:39;7.70;99.90
34099;DHT22;20374;49.474;10.944;2022-11-25T12:39:23;7.70;99.90
34099;DHT22;20374;49.474;10.944;2022-11-25T12:42:15;7.70;99.90
34099;DHT22;20374;49.474;10.944;2022-11-25T12:47:28;7.80;99.90
34099;DHT22;20374;49.474;10.944;2022-11-25T12:49:55;7.80;99.90
34099;DHT22;20374;49.474;10.944;2022-11-25T12:55:32;7.90;99.90
34099;DHT22;20374;49.474;10.944;2022-11-25T13:16:55;7.60;99.90
34099;DHT22;20374;49.474;10.944;2022-11-25T13:19:22;7.50;99.90
34099;DHT22;20374;49.474;10.944;2022-11-25T13:22:01;7.40;99.90
34099;DHT22;20374;49.474;10.944;2022-11-25T13:24:38;7.30;99.90
34099;DHT22;20374;49.474;10.944;2022-11-25T13:27:04;7.30;99.90
34099;DHT22;20374;49.474;10.944;2022-11-25T13:31:58;7.20;99.90
34099;DHT22;20374;49.474;10.944;2022-11-25T13:34:25;7.10;99.90
34099;DHT22;20374;49.474;10.944;2022-11-25T13:36:54;7.00;99.90
34099;DHT22;20374;49.474;10.944;2022-11-25T13:42:23;6.90;99.90
34099;DHT22;20374;49.474;10.944;2022-11-25T13:44:59;6.90;99.90
34099;DHT22;20374;49.474;10.944;2022-11-25T13:47:33;6.90;99.90
34099;DHT22;20374;49.474;10.944;2022-11-25T13:55:22;6.80;99.90
34099;DHT22;20374;49.474;10.944;2022-11-25T14:06:05;6.90;99.90
34099;DHT22;20374;49.474;10.944;2022-11-25T14:11:56;6.80;99.90
34099;DHT22;20374;49.474;10.944;2022-11-25T14:20:35;6.80;99.90
34099;DHT22;20374;49.474;10.944;2022-11-25T14:25:54;6.80;99.90
34099;DHT22;20374;49.474;10.944;2022-11-25T14:31:04;6.80;99.90
34099;DHT22;20374;49.474;10.944;2022-11-25T14:33:50;6.80;99.90
34099;DHT22;20374;49.474;10.944;2022-11-25T14:36:25;6.80;99.90
34099;DHT22;20374;49.474;10.944;2022-11-25T14:39:03;6.80;99.90
34099;DHT22;20374;49.474;10.944;2022-11-25T14:41:43;6.80;99.90
34099;DHT22;20374;49.474;10.944;2022-11-25T14:44:16;6.80;99.90
34099;DHT22;20374;49.474;10.944;2022-11-25T14:46:57;6.80;99.90
34099;DHT22;20374;49.474;10.944;2022-11-25T14:49:23;6.80;99.90
34099;DHT22;20374;49.474;10.944;2022-11-25T14:51:50;6.80;99.90
34099;DHT22;20374;49.474;10.944;2022-11-25T14:54:19;6.80;99.90
34099;DHT22;20374;49.474;10.944;2022-11-25T14:56:47;6.80;99.90
34099;DHT22;20374;49.474;10.944;2022-11-25T14:59:13;6.80;99.90
34099;DHT22;20374;49.474;10.944;2022-11-25T15:01:51;6.80;99.90
34099;DHT22;20374;49.474;10.944;2022-11-25T15:04:21;6.80;99.90
34099;DHT22;20374;49.474;10.944;2022-11-25T15:06:54;6.80;99.90
34099;DHT22;20374;49.474;10.944;2022-11-25T15:09:30;6.80;99.90
34099;DHT22;20374;49.474;10.944;2022-11-25T15:12:01;6.80;99.90
34099;DHT22;20374;49.474;10.944;2022-11-25T15:14:33;6.80;99.90
34099;DHT22;20374;49.474;10.944;2022-11-25T15:17:06;6.80;99.90
34099;DHT22;20374;49.474;10.944;2022-11-25T15:19:33;6.80;99.90
34099;DHT22;20374;49.474;10.944;2022-11-25T15:22:03;6.80;99.90
34099;DHT22;20374;49.474;10.944;2022-11-25T15:24:31;6.80;99.90
34099;DHT22;20374;49.474;10.944;2022-11-25T15:27:00;6.80;99.90
34099;DHT22;20374;49.474;10.944;2022-11-25T15:29:29;6.80;99.90
34099;DHT22;20374;49.474;10.944;2022-11-25T15:31:57;6.80;99.90
34099;DHT22;20374;49.474;10.944;2022-11-25T15:34:25;6.80;99.90
34099;DHT22;20374;49.474;10.944;2022-11-25T15:36:53;6.80;99.90
34099;DHT22;20374;49.474;10.944;2022-11-25T15:41:55;6.70;99.90
34099;DHT22;20374;49.474;10.944;2022-11-25T15:44:31;6.70;99.90
34099;DHT22;20374;49.474;10.944;2022-11-25T15:49:23;6.70;99.90
34099;DHT22;20374;49.474;10.944;2022-11-25T15:52:16;6.70;99.90
34099;DHT22;20374;49.474;10.944;2022-11-25T15:54:45;6.80;99.90
34099;DHT22;20374;49.474;10.944;2022-11-25T16:05:22;6.70;99.90
34099;DHT22;20374;49.474;10.944;2022-11-25T16:18:30;6.70;99.90
34099;DHT22;20374;49.474;10.944;2022-11-25T16:21:02;6.70;99.90
34099;DHT22;20374;49.474;10.944;2022-11-25T16:23:33;6.70;99.90
34099;DHT22;20374;49.474;10.944;2022-11-25T16:28:41;6.70;99.90
34099;DHT22;20374;49.474;10.944;2022-11-25T16:31:18;6.70;99.90
34099;DHT22;20374;49.474;10.944;2022-11-25T16:33:44;6.70;99.90
34099;DHT22;20374;49.474;10.944;2022-11-25T16:36:10;6.70;99.90
34099;DHT22;20374;49.474;10.944;2022-11-25T16:38:36;6.70;99.90
34099;DHT22;20374;49.474;10.944;2022-11-25T16:41:22;6.70;99.90
34099;DHT22;20374;49.474;10.944;2022-11-25T16:43:48;6.70;99.90
34099;DHT22;20374;49.474;10.944;2022-11-25T16:46:16;6.80;99.90
34099;DHT22;20374;49.474;10.944;2022-11-25T16:48:43;6.80;99.90
34099;DHT22;20374;49.474;10.944;2022-11-25T16:51:19;6.80;99.90
34099;DHT22;20374;49.474;10.944;2022-11-25T16:53:46;6.80;99.90
34099;DHT22;20374;49.474;10.944;2022-11-25T16:56:22;6.80;99.90
34099;DHT22;20374;49.474;10.944;2022-11-25T16:58:49;6.70;99.90
34099;DHT22;20374;49.474;10.944;2022-11-25T17:01:16;6.70;99.90
34099;DHT22;20374;49.474;10.944;2022-11-25T17:03:42;6.70;99.90
34099;DHT22;20374;49.474;10.944;2022-11-25T17:06:20;6.70;99.90
34099;DHT22;20374;49.474;10.944;2022-11-25T17:08:46;6.70;99.90
34099;DHT22;20374;49.474;10.944;2022-11-25T17:11:17;6.70;99.90
34099;DHT22;20374;49.474;10.944;2022-11-25T17:13:46;6.70;99.90
34099;DHT22;20374;49.474;10.944;2022-11-25T17:16:20;6.70;99.90
34099;DHT22;20374;49.474;10.944;2022-11-25T17:18:47;6.70;99.90
34099;DHT22;20374;49.474;10.944;2022-11-25T17:21:15;6.60;99.90
34099;DHT22;20374;49.474;10.944;2022-11-25T17:23:45;6.60;99.90
34099;DHT22;20374;49.474;10.944;2022-11-25T17:26:25;6.60;99.90
34099;DHT22;20374;49.474;10.944;2022-11-25T17:28:57;6.60;99.90
34099;DHT22;20374;49.474;10.944;2022-11-25T17:31:29;6.60;99.90
34099;DHT22;20374;49.474;10.944;2022-11-25T17:33:56;6.50;99.90
34099;DHT22;20374;49.474;10.944;2022-11-25T17:36:22;6.50;99.90
34099;DHT22;20374;49.474;10.944;2022-11-25T17:38:49;6.50;99.90
34099;DHT22;20374;49.474;10.944;2022-11-25T17:41:17;6.50;99.90
34099;DHT22;20374;49.474;10.944;2022-11-25T17:43:44;6.50;99.90
34099;DHT22;20374;49.474;10.944;2022-11-25T17:46:13;6.40;99.90
34099;DHT22;20374;49.474;10.944;2022-11-25T17:48:39;6.40;99.90
34099;DHT22;20374;49.474;10.944;2022-11-25T17:51:12;6.30;99.90
34099;DHT22;20374;49.474;10.944;2022-11-25T17:53:39;6.30;99.90
34099;DHT22;20374;49.474;10.944;2022-11-25T17:56:26;6.30;99.90
34099;DHT22;20374;49.474;10.944;2022-11-25T17:58:53;6.30;99.90
34099;DHT22;20374;49.474;10.944;2022-11-25T18:01:19;6.30;99.90
34099;DHT22;20374;49.474;10.944;2022-11-25T18:03:45;6.30;99.90
34099;DHT22;20374;49.474;10.944;2022-11-25T18:06:14;6.30;99.90
34099;DHT22;20374;49.474;10.944;2022-11-25T18:08:40;6.30;99.90
34099;DHT22;20374;49.474;10.944;2022-11-25T18:11:06;6.30;99.90
34099;DHT22;20374;49.474;10.944;2022-11-25T18:13:39;6.30;99.90
34099;DHT22;20374;49.474;10.944;2022-11-25T18:16:06;6.20;99.90